sensor_id;sensor_type;location;lat;lon;timestamp;P1;P2;P0
60816;PMS5003;51921;51.518;-3.188;2023-01-10T00:02:15;18;16;
60816;PMS5003;51921;51.518;-3.188;2023-01-10T00:04:41;14;13;
60816;PMS5003;51921;51.518;-3.188;2023-01-10T00:07:07;19;17;
60816;PMS5003;51921;51.518;-3.188;2023-01-10T00:11:57;14;13;
60816;PMS5003;51921;51.518;-3.188;2023-01-10T00:14:25;13;12;
60816;PMS5003;51921;51.518;-3.188;2023-01-10T00:16:49;8;7;
60816;PMS5003;51921;51.518;-3.188;2023-01-10T00:19:14;10;9;
60816;PMS5003;51921;51.518;-3.188;2023-01-10T00:21:40;12;10;
60816;PMS5003;51921;51.518;-3.188;2023-01-10T00:24:06;11;9;
60816;PMS5003;51921;51.518;-3.188;2023-01-10T00:26:31;13;9;
60816;PMS5003;51921;51.518;-3.188;2023-01-10T00:28:57;8;6;
60816;PMS5003;51921;51.518;-3.188;2023-01-10T00:31:22;8;8;
60816;PMS5003;51921;51.518;-3.188;2023-01-10T00:33:47;7;7;
60816;PMS5003;51921;51.518;-3.188;2023-01-10T00:36:13;9;7;
60816;PMS5003;51921;51.518;-3.188;2023-01-10T00:38:38;12;10;
60816;PMS5003;51921;51.518;-3.188;2023-01-10T00:41:04;10;9;
60816;PMS5003;51921;51.518;-3.188;2023-01-10T00:43:29;9;7;
60816;PMS5003;51921;51.518;-3.188;2023-01-10T00:45:55;11;7;
60816;PMS5003;51921;51.518;-3.188;2023-01-10T00:48:20;11;11;
60816;PMS5003;51921;51.518;-3.188;2023-01-10T00:50:46;7;6;
60816;PMS5003;51921;51.518;-3.188;2023-01-10T00:53:12;19;17;
60816;PMS5003;51921;51.518;-3.188;2023-01-10T00:55:43;19;18;
60816;PMS5003;51921;51.518;-3.188;2023-01-10T00:58:03;11;11;
60816;PMS5003;51921;51.518;-3.188;2023-01-10T01:00:27;17;14;
60816;PMS5003;51921;51.518;-3.188;2023-01-10T01:02:53;13;11;
60816;PMS5003;51921;51.518;-3.188;2023-01-10T01:05:19;18;16;
60816;PMS5003;51921;51.518;-3.188;2023-01-10T01:07:46;14;13;
60816;PMS5003;51921;51.518;-3.188;2023-01-10T01:10:10;10;8;
60816;PMS5003;51921;51.518;-3.188;2023-01-10T01:12:35;10;10;
60816;PMS5003;51921;51.518;-3.188;2023-01-10T01:15:00;13;10;
60816;PMS5003;51921;51.518;-3.188;2023-01-10T01:17:26;14;14;
60816;PMS5003;51921;51.518;-3.188;2023-01-10T01:19:52;14;11;
60816;PMS5003;51921;51.518;-3.188;2023-01-10T01:22:17;10;9;
60816;PMS5003;51921;51.518;-3.188;2023-01-10T01:24:43;15;11;
60816;PMS5003;51921;51.518;-3.188;2023-01-10T01:27:08;9;6;
60816;PMS5003;51921;51.518;-3.188;2023-01-10T01:29:34;13;7;
60816;PMS5003;51921;51.518;-3.188;2023-01-10T01:31:59;9;7;
60816;PMS5003;51921;51.518;-3.188;2023-01-10T01:34:25;7;6;
60816;PMS5003;51921;51.518;-3.188;2023-01-10T01:36:51;11;10;
60816;PMS5003;51921;51.518;-3.188;2023-01-10T01:39:16;9;7;
60816;PMS5003;51921;51.518;-3.188;2023-01-10T01:41:42;9;5;
60816;PMS5003;51921;51.518;-3.188;2023-01-10T01:44:09;7;6;
60816;PMS5003;51921;51.518;-3.188;2023-01-10T01:46:34;9;8;
60816;PMS5003;51921;51.518;-3.188;2023-01-10T01:48:59;8;7;
60816;PMS5003;51921;51.518;-3.188;2023-01-10T01:51:25;8;6;
60816;PMS5003;51921;51.518;-3.188;2023-01-10T01:53:51;10;6;
60816;PMS5003;51921;51.518;-3.188;2023-01-10T01:56:16;5;5;
60816;PMS5003;51921;51.518;-3.188;2023-01-10T01:58:43;10;5;
60816;PMS5003;51921;51.518;-3.188;2023-01-10T02:01:06;5;5;
60816;PMS5003;51921;51.518;-3.188;2023-01-10T02:03:31;8;6;
60816;PMS5003;51921;51.518;-3.188;2023-01-10T02:05:57;10;9;
60816;PMS5003;51921;51.518;-3.188;2023-01-10T02:08:22;7;6;
60816;PMS5003;51921;51.518;-3.188;2023-01-10T02:10:50;10;7;
60816;PMS5003;51921;51.518;-3.188;2023-01-10T02:13:14;2;2;
60816;PMS5003;51921;51.518;-3.188;2023-01-10T02:15:40;4;3;
60816;PMS5003;51921;51.518;-3.188;2023-01-10T02:18:05;3;3;
60816;PMS5003;51921;51.518;-3.188;2023-01-10T02:20:32;6;4;
60816;PMS5003;51921;51.518;-3.188;2023-01-10T02:25:26;6;5;
60816;PMS5003;51921;51.518;-3.188;2023-01-10T02:27:52;3;3;
60816;PMS5003;51921;51.518;-3.188;2023-01-10T02:32:39;6;4;
60816;PMS5003;51921;51.518;-3.188;2023-01-10T02:35:07;5;3;
60816;PMS5003;51921;51.518;-3.188;2023-01-10T02:37:32;5;4;
60816;PMS5003;51921;51.518;-3.188;2023-01-10T02:39:55;4;3;
60816;PMS5003;51921;51.518;-3.188;2023-01-10T02:42:21;4;4;
60816;PMS5003;51921;51.518;-3.188;2023-01-10T02:44:47;6;5;
60816;PMS5003;51921;51.518;-3.188;2023-01-10T02:47:11;3;3;
60816;PMS5003;51921;51.518;-3.188;2023-01-10T02:49:40;6;5;
60816;PMS5003;51921;51.518;-3.188;2023-01-10T02:52:02;5;4;
60816;PMS5003;51921;51.518;-3.188;2023-01-10T02:54:27;6;5;
60816;PMS5003;51921;51.518;-3.188;2023-01-10T02:56:57;5;4;
60816;PMS5003;51921;51.518;-3.188;2023-01-10T03:01:46;6;5;
60816;PMS5003;51921;51.518;-3.188;2023-01-10T03:04:11;3;2;
60816;PMS5003;51921;51.518;-3.188;2023-01-10T03:06:37;5;4;
60816;PMS5003;51921;51.518;-3.188;2023-01-10T03:09:02;3;1;
60816;PMS5003;51921;51.518;-3.188;2023-01-10T03:11:26;3;3;
60816;PMS5003;51921;51.518;-3.188;2023-01-10T03:13:52;4;4;
60816;PMS5003;51921;51.518;-3.188;2023-01-10T03:16:18;7;6;
60816;PMS5003;51921;51.518;-3.188;2023-01-10T03:18:44;7;4;
60816;PMS5003;51921;51.518;-3.188;2023-01-10T03:21:08;7;6;
60816;PMS5003;51921;51.518;-3.188;2023-01-10T03:23:34;7;5;
60816;PMS5003;51921;51.518;-3.188;2023-01-10T03:25:59;7;7;
60816;PMS5003;51921;51.518;-3.188;2023-01-10T03:28:27;7;4;
60816;PMS5003;51921;51.518;-3.188;2023-01-10T03:30:51;10;6;
60816;PMS5003;51921;51.518;-3.188;2023-01-10T03:33:17;10;6;
60816;PMS5003;51921;51.518;-3.188;2023-01-10T03:35:45;6;6;
60816;PMS5003;51921;51.518;-3.188;2023-01-10T03:38:08;6;5;
60816;PMS5003;51921;51.518;-3.188;2023-01-10T03:40:34;5;3;
60816;PMS5003;51921;51.518;-3.188;2023-01-10T03:42:59;4;4;
60816;PMS5003;51921;51.518;-3.188;2023-01-10T03:45:25;7;5;
60816;PMS5003;51921;51.518;-3.188;2023-01-10T03:47:49;5;4;
60816;PMS5003;51921;51.518;-3.188;2023-01-10T03:50:17;3;3;
60816;PMS5003;51921;51.518;-3.188;2023-01-10T03:52:40;4;3;
60816;PMS5003;51921;51.518;-3.188;2023-01-10T03:55:06;7;4;
60816;PMS5003;51921;51.518;-3.188;2023-01-10T03:57:31;5;5;
60816;PMS5003;51921;51.518;-3.188;2023-01-10T03:59:57;9;6;
60816;PMS5003;51921;51.518;-3.188;2023-01-10T04:02:22;6;5;
60816;PMS5003;51921;51.518;-3.188;2023-01-10T04:04:47;7;7;
60816;PMS5003;51921;51.518;-3.188;2023-01-10T04:07:13;11;5;
60816;PMS5003;51921;51.518;-3.188;2023-01-10T04:09:38;6;4;
60816;PMS5003;51921;51.518;-3.188;2023-01-10T04:12:04;8;5;
60816;PMS5003;51921;51.518;-3.188;2023-01-10T04:14:29;7;4;
60816;PMS5003;51921;51.518;-3.188;2023-01-10T04:16:55;6;4;
60816;PMS5003;51921;51.518;-3.188;2023-01-10T04:19:20;5;5;
60816;PMS5003;51921;51.518;-3.188;2023-01-10T04:21:45;4;4;
60816;PMS5003;51921;51.518;-3.188;2023-01-10T04:24:11;8;4;
60816;PMS5003;51921;51.518;-3.188;2023-01-10T04:26:36;7;6;
60816;PMS5003;51921;51.518;-3.188;2023-01-10T04:29:02;7;5;
60816;PMS5003;51921;51.518;-3.188;2023-01-10T04:31:27;6;5;
60816;PMS5003;51921;51.518;-3.188;2023-01-10T04:33:58;8;6;
60816;PMS5003;51921;51.518;-3.188;2023-01-10T04:36:18;4;4;
60816;PMS5003;51921;51.518;-3.188;2023-01-10T04:38:44;6;6;
60816;PMS5003;51921;51.518;-3.188;2023-01-10T04:41:09;5;2;
60816;PMS5003;51921;51.518;-3.188;2023-01-10T04:43:34;8;5;
60816;PMS5003;51921;51.518;-3.188;2023-01-10T04:46:00;3;2;
60816;PMS5003;51921;51.518;-3.188;2023-01-10T04:48:25;5;5;
60816;PMS5003;51921;51.518;-3.188;2023-01-10T04:50:51;6;5;
60816;PMS5003;51921;51.518;-3.188;2023-01-10T04:53:17;7;6;
60816;PMS5003;51921;51.518;-3.188;2023-01-10T04:55:42;4;2;
60816;PMS5003;51921;51.518;-3.188;2023-01-10T04:58:08;4;3;
60816;PMS5003;51921;51.518;-3.188;2023-01-10T05:00:33;5;5;
60816;PMS5003;51921;51.518;-3.188;2023-01-10T05:02:59;9;8;
60816;PMS5003;51921;51.518;-3.188;2023-01-10T05:05:24;4;4;
60816;PMS5003;51921;51.518;-3.188;2023-01-10T05:07:50;6;5;
60816;PMS5003;51921;51.518;-3.188;2023-01-10T05:10:15;5;4;
60816;PMS5003;51921;51.518;-3.188;2023-01-10T05:12:41;6;4;
60816;PMS5003;51921;51.518;-3.188;2023-01-10T05:15:07;7;6;
60816;PMS5003;51921;51.518;-3.188;2023-01-10T05:17:32;6;5;
60816;PMS5003;51921;51.518;-3.188;2023-01-10T05:19:58;5;4;
60816;PMS5003;51921;51.518;-3.188;2023-01-10T05:22:23;8;6;
60816;PMS5003;51921;51.518;-3.188;2023-01-10T05:24:49;7;7;
60816;PMS5003;51921;51.518;-3.188;2023-01-10T05:27:14;9;6;
60816;PMS5003;51921;51.518;-3.188;2023-01-10T05:29:40;5;4;
60816;PMS5003;51921;51.518;-3.188;2023-01-10T05:32:06;4;3;
60816;PMS5003;51921;51.518;-3.188;2023-01-10T05:34:31;6;3;
60816;PMS5003;51921;51.518;-3.188;2023-01-10T05:36:57;8;5;
60816;PMS5003;51921;51.518;-3.188;2023-01-10T05:39:22;9;6;
60816;PMS5003;51921;51.518;-3.188;2023-01-10T05:41:47;6;5;
60816;PMS5003;51921;51.518;-3.188;2023-01-10T05:44:13;5;4;
60816;PMS5003;51921;51.518;-3.188;2023-01-10T05:46:38;6;5;
60816;PMS5003;51921;51.518;-3.188;2023-01-10T05:49:04;5;4;
60816;PMS5003;51921;51.518;-3.188;2023-01-10T05:51:29;6;4;
60816;PMS5003;51921;51.518;-3.188;2023-01-10T05:53:55;5;4;
60816;PMS5003;51921;51.518;-3.188;2023-01-10T05:56:20;7;6;
60816;PMS5003;51921;51.518;-3.188;2023-01-10T05:58:46;8;6;
60816;PMS5003;51921;51.518;-3.188;2023-01-10T06:01:11;5;4;
60816;PMS5003;51921;51.518;-3.188;2023-01-10T06:03:37;3;2;
60816;PMS5003;51921;51.518;-3.188;2023-01-10T06:06:02;6;5;
60816;PMS5003;51921;51.518;-3.188;2023-01-10T06:08:28;5;3;
60816;PMS5003;51921;51.518;-3.188;2023-01-10T06:10:54;5;5;
60816;PMS5003;51921;51.518;-3.188;2023-01-10T06:13:19;2;1;
60816;PMS5003;51921;51.518;-3.188;2023-01-10T06:15:45;3;3;
60816;PMS5003;51921;51.518;-3.188;2023-01-10T06:20:36;4;4;
60816;PMS5003;51921;51.518;-3.188;2023-01-10T06:23:01;5;2;
60816;PMS5003;51921;51.518;-3.188;2023-01-10T06:25:27;6;2;
60816;PMS5003;51921;51.518;-3.188;2023-01-10T06:27:52;4;3;
60816;PMS5003;51921;51.518;-3.188;2023-01-10T06:32:43;4;3;
60816;PMS5003;51921;51.518;-3.188;2023-01-10T06:35:09;3;3;
60816;PMS5003;51921;51.518;-3.188;2023-01-10T06:37:34;4;3;
60816;PMS5003;51921;51.518;-3.188;2023-01-10T06:40:00;2;2;
60816;PMS5003;51921;51.518;-3.188;2023-01-10T06:42:25;3;3;
60816;PMS5003;51921;51.518;-3.188;2023-01-10T06:44:51;4;4;
60816;PMS5003;51921;51.518;-3.188;2023-01-10T06:47:17;2;2;
60816;PMS5003;51921;51.518;-3.188;2023-01-10T06:49:42;0;0;
60816;PMS5003;51921;51.518;-3.188;2023-01-10T06:52:08;4;2;
60816;PMS5003;51921;51.518;-3.188;2023-01-10T06:54:33;2;2;
60816;PMS5003;51921;51.518;-3.188;2023-01-10T06:56:59;1;1;
60816;PMS5003;51921;51.518;-3.188;2023-01-10T06:59:24;2;1;
60816;PMS5003;51921;51.518;-3.188;2023-01-10T07:01:50;1;1;
60816;PMS5003;51921;51.518;-3.188;2023-01-10T07:04:15;1;1;
60816;PMS5003;51921;51.518;-3.188;2023-01-10T07:06:41;4;3;
60816;PMS5003;51921;51.518;-3.188;2023-01-10T07:09:07;1;1;
60816;PMS5003;51921;51.518;-3.188;2023-01-10T07:11:32;0;0;
60816;PMS5003;51921;51.518;-3.188;2023-01-10T07:13:57;1;1;
60816;PMS5003;51921;51.518;-3.188;2023-01-10T07:16:23;0;0;
60816;PMS5003;51921;51.518;-3.188;2023-01-10T07:18:48;0;0;
60816;PMS5003;51921;51.518;-3.188;2023-01-10T07:21:14;0;0;
60816;PMS5003;51921;51.518;-3.188;2023-01-10T07:23:40;1;1;
60816;PMS5003;51921;51.518;-3.188;2023-01-10T07:26:06;2;0;
60816;PMS5003;51921;51.518;-3.188;2023-01-10T07:28:31;0;0;
60816;PMS5003;51921;51.518;-3.188;2023-01-10T07:30:57;0;0;
60816;PMS5003;51921;51.518;-3.188;2023-01-10T07:33:22;2;2;
60816;PMS5003;51921;51.518;-3.188;2023-01-10T07:35:47;0;0;
60816;PMS5003;51921;51.518;-3.188;2023-01-10T07:38:13;2;2;
60816;PMS5003;51921;51.518;-3.188;2023-01-10T07:40:38;2;1;
60816;PMS5003;51921;51.518;-3.188;2023-01-10T07:43:04;1;0;
60816;PMS5003;51921;51.518;-3.188;2023-01-10T07:45:29;1;1;
60816;PMS5003;51921;51.518;-3.188;2023-01-10T07:47:55;1;1;
60816;PMS5003;51921;51.518;-3.188;2023-01-10T07:50:20;0;0;
60816;PMS5003;51921;51.518;-3.188;2023-01-10T07:52:46;2;1;
60816;PMS5003;51921;51.518;-3.188;2023-01-10T07:55:11;0;0;
60816;PMS5003;51921;51.518;-3.188;2023-01-10T07:57:37;2;1;
60816;PMS5003;51921;51.518;-3.188;2023-01-10T08:00:03;0;0;
60816;PMS5003;51921;51.518;-3.188;2023-01-10T08:02:28;2;2;
60816;PMS5003;51921;51.518;-3.188;2023-01-10T08:04:54;1;0;
60816;PMS5003;51921;51.518;-3.188;2023-01-10T08:07:19;0;0;
60816;PMS5003;51921;51.518;-3.188;2023-01-10T08:09:45;2;1;
60816;PMS5003;51921;51.518;-3.188;2023-01-10T08:12:10;2;1;
60816;PMS5003;51921;51.518;-3.188;2023-01-10T08:14:36;3;1;
60816;PMS5003;51921;51.518;-3.188;2023-01-10T08:17:01;1;1;
60816;PMS5003;51921;51.518;-3.188;2023-01-10T08:19:27;1;1;
60816;PMS5003;51921;51.518;-3.188;2023-01-10T08:21:53;1;0;
60816;PMS5003;51921;51.518;-3.188;2023-01-10T08:24:18;1;1;
60816;PMS5003;51921;51.518;-3.188;2023-01-10T08:26:43;0;0;
60816;PMS5003;51921;51.518;-3.188;2023-01-10T08:29:09;0;0;
60816;PMS5003;51921;51.518;-3.188;2023-01-10T08:31:34;2;1;
60816;PMS5003;51921;51.518;-3.188;2023-01-10T08:34:00;0;0;
60816;PMS5003;51921;51.518;-3.188;2023-01-10T08:36:25;1;1;
60816;PMS5003;51921;51.518;-3.188;2023-01-10T08:38:53;0;0;
60816;PMS5003;51921;51.518;-3.188;2023-01-10T08:41:16;0;0;
60816;PMS5003;51921;51.518;-3.188;2023-01-10T08:43:42;1;0;
60816;PMS5003;51921;51.518;-3.188;2023-01-10T08:46:08;1;0;
60816;PMS5003;51921;51.518;-3.188;2023-01-10T08:48:33;0;0;
60816;PMS5003;51921;51.518;-3.188;2023-01-10T08:51:03;1;1;
60816;PMS5003;51921;51.518;-3.188;2023-01-10T08:53:24;1;0;
60816;PMS5003;51921;51.518;-3.188;2023-01-10T08:55:49;2;1;
60816;PMS5003;51921;51.518;-3.188;2023-01-10T08:58:15;1;1;
60816;PMS5003;51921;51.518;-3.188;2023-01-10T09:00:40;1;0;
60816;PMS5003;51921;51.518;-3.188;2023-01-10T09:03:06;0;0;
60816;PMS5003;51921;51.518;-3.188;2023-01-10T09:05:31;0;0;
60816;PMS5003;51921;51.518;-3.188;2023-01-10T09:07:57;1;1;
60816;PMS5003;51921;51.518;-3.188;2023-01-10T09:10:22;1;1;
60816;PMS5003;51921;51.518;-3.188;2023-01-10T09:12:48;1;1;
60816;PMS5003;51921;51.518;-3.188;2023-01-10T09:15:13;2;1;
60816;PMS5003;51921;51.518;-3.188;2023-01-10T09:17:39;1;1;
60816;PMS5003;51921;51.518;-3.188;2023-01-10T09:20:05;0;0;
60816;PMS5003;51921;51.518;-3.188;2023-01-10T09:22:30;1;1;
60816;PMS5003;51921;51.518;-3.188;2023-01-10T09:24:56;1;1;
60816;PMS5003;51921;51.518;-3.188;2023-01-10T09:27:21;2;2;
60816;PMS5003;51921;51.518;-3.188;2023-01-10T09:29:47;2;2;
60816;PMS5003;51921;51.518;-3.188;2023-01-10T09:32:12;1;1;
60816;PMS5003;51921;51.518;-3.188;2023-01-10T09:34:38;2;2;
60816;PMS5003;51921;51.518;-3.188;2023-01-10T09:37:03;1;1;
60816;PMS5003;51921;51.518;-3.188;2023-01-10T09:39:29;1;1;
60816;PMS5003;51921;51.518;-3.188;2023-01-10T09:41:58;1;1;
60816;PMS5003;51921;51.518;-3.188;2023-01-10T09:44:23;0;0;
60816;PMS5003;51921;51.518;-3.188;2023-01-10T09:46:47;1;1;
60816;PMS5003;51921;51.518;-3.188;2023-01-10T09:49:14;1;0;
60816;PMS5003;51921;51.518;-3.188;2023-01-10T09:51:37;1;1;
60816;PMS5003;51921;51.518;-3.188;2023-01-10T09:54:03;2;1;
60816;PMS5003;51921;51.518;-3.188;2023-01-10T09:56:28;0;0;
60816;PMS5003;51921;51.518;-3.188;2023-01-10T09:58:53;1;1;
60816;PMS5003;51921;51.518;-3.188;2023-01-10T10:01:20;2;2;
60816;PMS5003;51921;51.518;-3.188;2023-01-10T10:03:45;5;4;
60816;PMS5003;51921;51.518;-3.188;2023-01-10T10:06:10;3;2;
60816;PMS5003;51921;51.518;-3.188;2023-01-10T10:08:35;4;4;
60816;PMS5003;51921;51.518;-3.188;2023-01-10T10:11:04;6;5;
60816;PMS5003;51921;51.518;-3.188;2023-01-10T10:13:30;6;5;
60816;PMS5003;51921;51.518;-3.188;2023-01-10T10:15:52;10;5;
60816;PMS5003;51921;51.518;-3.188;2023-01-10T10:18:19;10;9;
60816;PMS5003;51921;51.518;-3.188;2023-01-10T10:20:46;8;7;
60816;PMS5003;51921;51.518;-3.188;2023-01-10T10:23:14;8;6;
60816;PMS5003;51921;51.518;-3.188;2023-01-10T10:25:37;9;8;
60816;PMS5003;51921;51.518;-3.188;2023-01-10T10:28:02;13;8;
60816;PMS5003;51921;51.518;-3.188;2023-01-10T10:30:26;11;8;
60816;PMS5003;51921;51.518;-3.188;2023-01-10T10:32:52;9;7;
60816;PMS5003;51921;51.518;-3.188;2023-01-10T10:35:14;12;11;
60816;PMS5003;51921;51.518;-3.188;2023-01-10T10:37:39;11;6;
60816;PMS5003;51921;51.518;-3.188;2023-01-10T10:40:05;9;8;
60816;PMS5003;51921;51.518;-3.188;2023-01-10T10:42:30;16;13;
60816;PMS5003;51921;51.518;-3.188;2023-01-10T10:44:56;10;8;
60816;PMS5003;51921;51.518;-3.188;2023-01-10T10:47:21;15;10;
60816;PMS5003;51921;51.518;-3.188;2023-01-10T10:49:48;11;9;
60816;PMS5003;51921;51.518;-3.188;2023-01-10T10:52:14;12;11;
60816;PMS5003;51921;51.518;-3.188;2023-01-10T10:54:37;13;10;
60816;PMS5003;51921;51.518;-3.188;2023-01-10T10:57:03;16;12;
60816;PMS5003;51921;51.518;-3.188;2023-01-10T10:59:28;7;7;
60816;PMS5003;51921;51.518;-3.188;2023-01-10T11:01:54;7;5;
60816;PMS5003;51921;51.518;-3.188;2023-01-10T11:04:20;9;7;
60816;PMS5003;51921;51.518;-3.188;2023-01-10T11:06:45;7;6;
60816;PMS5003;51921;51.518;-3.188;2023-01-10T11:09:10;10;7;
60816;PMS5003;51921;51.518;-3.188;2023-01-10T11:11:37;9;9;
60816;PMS5003;51921;51.518;-3.188;2023-01-10T11:14:00;12;9;
60816;PMS5003;51921;51.518;-3.188;2023-01-10T11:16:26;9;7;
60816;PMS5003;51921;51.518;-3.188;2023-01-10T11:21:17;6;5;
60816;PMS5003;51921;51.518;-3.188;2023-01-10T11:23:48;8;6;
60816;PMS5003;51921;51.518;-3.188;2023-01-10T11:26:08;9;7;
60816;PMS5003;51921;51.518;-3.188;2023-01-10T11:28:33;9;6;
60816;PMS5003;51921;51.518;-3.188;2023-01-10T11:30:59;6;5;
60816;PMS5003;51921;51.518;-3.188;2023-01-10T11:33:25;12;8;
60816;PMS5003;51921;51.518;-3.188;2023-01-10T11:35:55;6;5;
60816;PMS5003;51921;51.518;-3.188;2023-01-10T11:38:17;4;4;
60816;PMS5003;51921;51.518;-3.188;2023-01-10T11:40:40;4;4;
60816;PMS5003;51921;51.518;-3.188;2023-01-10T11:45:32;5;3;
60816;PMS5003;51921;51.518;-3.188;2023-01-10T11:47:58;4;4;
60816;PMS5003;51921;51.518;-3.188;2023-01-10T11:50:22;7;5;
60816;PMS5003;51921;51.518;-3.188;2023-01-10T11:52:47;5;5;
60816;PMS5003;51921;51.518;-3.188;2023-01-10T11:55:16;6;5;
60816;PMS5003;51921;51.518;-3.188;2023-01-10T11:57:38;5;5;
60816;PMS5003;51921;51.518;-3.188;2023-01-10T12:00:04;7;6;
60816;PMS5003;51921;51.518;-3.188;2023-01-10T12:02:29;4;3;
60816;PMS5003;51921;51.518;-3.188;2023-01-10T12:04:54;6;5;
60816;PMS5003;51921;51.518;-3.188;2023-01-10T12:07:19;6;6;
60816;PMS5003;51921;51.518;-3.188;2023-01-10T12:09:53;5;5;
60816;PMS5003;51921;51.518;-3.188;2023-01-10T12:12:15;6;6;
60816;PMS5003;51921;51.518;-3.188;2023-01-10T12:14:36;9;6;
60816;PMS5003;51921;51.518;-3.188;2023-01-10T12:17:02;7;6;
60816;PMS5003;51921;51.518;-3.188;2023-01-10T12:19:27;9;6;
60816;PMS5003;51921;51.518;-3.188;2023-01-10T12:21:53;13;8;
60816;PMS5003;51921;51.518;-3.188;2023-01-10T12:24:20;8;8;
60816;PMS5003;51921;51.518;-3.188;2023-01-10T12:26:43;7;7;
60816;PMS5003;51921;51.518;-3.188;2023-01-10T12:29:10;9;8;
60816;PMS5003;51921;51.518;-3.188;2023-01-10T12:31:34;11;10;
60816;PMS5003;51921;51.518;-3.188;2023-01-10T12:34:01;8;6;
60816;PMS5003;51921;51.518;-3.188;2023-01-10T12:36:29;10;9;
60816;PMS5003;51921;51.518;-3.188;2023-01-10T12:38:53;8;6;
60816;PMS5003;51921;51.518;-3.188;2023-01-10T12:41:18;8;7;
60816;PMS5003;51921;51.518;-3.188;2023-01-10T12:43:41;11;7;
60816;PMS5003;51921;51.518;-3.188;2023-01-10T12:46:08;7;6;
60816;PMS5003;51921;51.518;-3.188;2023-01-10T12:48:35;14;10;
60816;PMS5003;51921;51.518;-3.188;2023-01-10T12:50:59;8;6;
60816;PMS5003;51921;51.518;-3.188;2023-01-10T12:53:26;7;6;
60816;PMS5003;51921;51.518;-3.188;2023-01-10T12:55:48;7;5;
60816;PMS5003;51921;51.518;-3.188;2023-01-10T12:58:16;8;5;
60816;PMS5003;51921;51.518;-3.188;2023-01-10T13:00:40;8;6;
60816;PMS5003;51921;51.518;-3.188;2023-01-10T13:03:08;5;4;
60816;PMS5003;51921;51.518;-3.188;2023-01-10T13:05:30;8;5;
60816;PMS5003;51921;51.518;-3.188;2023-01-10T13:07:58;11;5;
60816;PMS5003;51921;51.518;-3.188;2023-01-10T13:10:21;9;6;
60816;PMS5003;51921;51.518;-3.188;2023-01-10T13:12:49;9;7;
60816;PMS5003;51921;51.518;-3.188;2023-01-10T13:15:14;5;4;
60816;PMS5003;51921;51.518;-3.188;2023-01-10T13:17:44;6;5;
60816;PMS5003;51921;51.518;-3.188;2023-01-10T13:22:34;9;8;
60816;PMS5003;51921;51.518;-3.188;2023-01-10T13:24:55;7;5;
60816;PMS5003;51921;51.518;-3.188;2023-01-10T13:27:19;6;5;
60816;PMS5003;51921;51.518;-3.188;2023-01-10T13:29:45;13;9;
60816;PMS5003;51921;51.518;-3.188;2023-01-10T13:32:17;8;6;
60816;PMS5003;51921;51.518;-3.188;2023-01-10T13:34:36;11;10;
60816;PMS5003;51921;51.518;-3.188;2023-01-10T13:37:02;7;6;
60816;PMS5003;51921;51.518;-3.188;2023-01-10T13:39:28;12;11;
60816;PMS5003;51921;51.518;-3.188;2023-01-10T13:44:18;7;5;
60816;PMS5003;51921;51.518;-3.188;2023-01-10T13:46:44;6;5;
60816;PMS5003;51921;51.518;-3.188;2023-01-10T13:51:35;9;8;
60816;PMS5003;51921;51.518;-3.188;2023-01-10T13:53:59;6;6;
60816;PMS5003;51921;51.518;-3.188;2023-01-10T13:56:32;9;9;
60816;PMS5003;51921;51.518;-3.188;2023-01-10T13:58:49;10;7;
60816;PMS5003;51921;51.518;-3.188;2023-01-10T14:03:42;8;5;
60816;PMS5003;51921;51.518;-3.188;2023-01-10T14:06:06;13;8;
60816;PMS5003;51921;51.518;-3.188;2023-01-10T14:08:30;9;6;
60816;PMS5003;51921;51.518;-3.188;2023-01-10T14:13:21;6;4;
60816;PMS5003;51921;51.518;-3.188;2023-01-10T14:15:46;9;7;
60816;PMS5003;51921;51.518;-3.188;2023-01-10T14:18:16;8;7;
60816;PMS5003;51921;51.518;-3.188;2023-01-10T14:20:37;12;9;
60816;PMS5003;51921;51.518;-3.188;2023-01-10T14:23:04;6;6;
60816;PMS5003;51921;51.518;-3.188;2023-01-10T14:25:28;9;7;
60816;PMS5003;51921;51.518;-3.188;2023-01-10T14:27:54;6;5;
60816;PMS5003;51921;51.518;-3.188;2023-01-10T14:30:20;7;5;
60816;PMS5003;51921;51.518;-3.188;2023-01-10T14:32:46;7;6;
60816;PMS5003;51921;51.518;-3.188;2023-01-10T14:35:13;13;10;
60816;PMS5003;51921;51.518;-3.188;2023-01-10T14:37:37;10;8;
60816;PMS5003;51921;51.518;-3.188;2023-01-10T14:40:01;6;6;
60816;PMS5003;51921;51.518;-3.188;2023-01-10T14:42:26;5;4;
60816;PMS5003;51921;51.518;-3.188;2023-01-10T14:44:53;10;9;
60816;PMS5003;51921;51.518;-3.188;2023-01-10T14:47:26;8;6;
60816;PMS5003;51921;51.518;-3.188;2023-01-10T14:49:47;4;4;
60816;PMS5003;51921;51.518;-3.188;2023-01-10T14:52:11;7;6;
60816;PMS5003;51921;51.518;-3.188;2023-01-10T14:54:33;7;5;
60816;PMS5003;51921;51.518;-3.188;2023-01-10T14:56:58;9;8;
60816;PMS5003;51921;51.518;-3.188;2023-01-10T14:59:30;8;8;
60816;PMS5003;51921;51.518;-3.188;2023-01-10T15:01:49;11;9;
60816;PMS5003;51921;51.518;-3.188;2023-01-10T15:04:15;8;7;
60816;PMS5003;51921;51.518;-3.188;2023-01-10T15:11:31;5;5;
60816;PMS5003;51921;51.518;-3.188;2023-01-10T15:13:59;8;7;
60816;PMS5003;51921;51.518;-3.188;2023-01-10T15:16:22;6;5;
60816;PMS5003;51921;51.518;-3.188;2023-01-10T15:18:48;6;5;
60816;PMS5003;51921;51.518;-3.188;2023-01-10T15:21:13;6;5;
60816;PMS5003;51921;51.518;-3.188;2023-01-10T15:23:39;9;8;
60816;PMS5003;51921;51.518;-3.188;2023-01-10T15:26:05;9;6;
60816;PMS5003;51921;51.518;-3.188;2023-01-10T15:28:30;4;3;
60816;PMS5003;51921;51.518;-3.188;2023-01-10T15:30:55;9;8;
60816;PMS5003;51921;51.518;-3.188;2023-01-10T15:33:23;4;3;
60816;PMS5003;51921;51.518;-3.188;2023-01-10T15:35:45;3;3;
60816;PMS5003;51921;51.518;-3.188;2023-01-10T15:38:11;2;2;
60816;PMS5003;51921;51.518;-3.188;2023-01-10T15:40:36;3;2;
60816;PMS5003;51921;51.518;-3.188;2023-01-10T15:43:10;5;4;
60816;PMS5003;51921;51.518;-3.188;2023-01-10T15:45:27;5;5;
60816;PMS5003;51921;51.518;-3.188;2023-01-10T15:47:52;6;3;
60816;PMS5003;51921;51.518;-3.188;2023-01-10T15:50:18;3;3;
60816;PMS5003;51921;51.518;-3.188;2023-01-10T15:52:46;5;4;
60816;PMS5003;51921;51.518;-3.188;2023-01-10T15:57:34;6;2;
60816;PMS5003;51921;51.518;-3.188;2023-01-10T15:59:59;3;2;
60816;PMS5003;51921;51.518;-3.188;2023-01-10T16:02:24;4;3;
60816;PMS5003;51921;51.518;-3.188;2023-01-10T16:04:50;5;5;
60816;PMS5003;51921;51.518;-3.188;2023-01-10T16:07:16;4;3;
60816;PMS5003;51921;51.518;-3.188;2023-01-10T16:09:40;4;3;
60816;PMS5003;51921;51.518;-3.188;2023-01-10T16:12:06;4;4;
60816;PMS5003;51921;51.518;-3.188;2023-01-10T16:14:31;4;2;
60816;PMS5003;51921;51.518;-3.188;2023-01-10T16:16:57;4;3;
60816;PMS5003;51921;51.518;-3.188;2023-01-10T16:19:22;4;3;
60816;PMS5003;51921;51.518;-3.188;2023-01-10T16:21:48;1;1;
60816;PMS5003;51921;51.518;-3.188;2023-01-10T16:24:15;3;2;
60816;PMS5003;51921;51.518;-3.188;2023-01-10T16:26:38;2;2;
60816;PMS5003;51921;51.518;-3.188;2023-01-10T16:29:04;2;2;
60816;PMS5003;51921;51.518;-3.188;2023-01-10T16:31:29;3;3;
60816;PMS5003;51921;51.518;-3.188;2023-01-10T16:33:55;3;3;
60816;PMS5003;51921;51.518;-3.188;2023-01-10T16:36:20;4;2;
60816;PMS5003;51921;51.518;-3.188;2023-01-10T16:38:46;1;1;
60816;PMS5003;51921;51.518;-3.188;2023-01-10T16:41:12;1;1;
60816;PMS5003;51921;51.518;-3.188;2023-01-10T16:43:37;4;3;
60816;PMS5003;51921;51.518;-3.188;2023-01-10T16:46:02;1;1;
60816;PMS5003;51921;51.518;-3.188;2023-01-10T16:48:29;2;2;
60816;PMS5003;51921;51.518;-3.188;2023-01-10T16:50:53;2;2;
60816;PMS5003;51921;51.518;-3.188;2023-01-10T16:53:19;1;1;
60816;PMS5003;51921;51.518;-3.188;2023-01-10T16:55:45;3;2;
60816;PMS5003;51921;51.518;-3.188;2023-01-10T16:58:10;2;2;